createdAt,value
2019-04-23T00:03:58.412Z,44.43
2019-04-23T00:09:02.825Z,44.47
2019-04-23T00:13:58.139Z,44.47
2019-04-23T00:18:59.354Z,44.52
2019-04-23T00:24:10.327Z,44.54
2019-04-23T00:29:11.923Z,44.60
2019-04-23T00:34:16.590Z,44.58
2019-04-23T00:39:23.686Z,44.70
2019-04-23T00:44:32.504Z,44.74
2019-04-23T00:49:32.532Z,44.75
2019-04-23T00:54:32.670Z,44.76
2019-04-23T00:59:52.205Z,44.78
2019-04-23T01:04:47.704Z,44.82
2019-04-23T01:09:54.494Z,44.86
2019-04-23T01:14:55.411Z,44.84
2019-04-23T01:20:01.708Z,44.92
2019-04-23T01:24:50.809Z,44.97
2019-04-23T01:30:38.831Z,44.95
2019-04-23T01:35:29.077Z,44.95
2019-04-23T01:40:33.008Z,45.04
2019-04-23T01:45:30.719Z,45.00
2019-04-23T01:55:46.535Z,45.14
2019-04-23T02:00:52.882Z,45.10
2019-04-23T02:11:02.994Z,45.19
2019-04-23T02:16:06.699Z,45.21
2019-04-23T02:21:16.943Z,45.23
2019-04-23T02:26:30.553Z,45.25
2019-04-23T02:36:40.513Z,45.27
2019-04-23T02:46:53.951Z,45.25
2019-04-23T03:02:17.551Z,45.34
2019-04-23T03:07:16.152Z,45.44
2019-04-23T03:12:18.529Z,45.43
2019-04-23T03:17:37.145Z,45.44
2019-04-23T03:27:44.061Z,45.63
2019-04-23T03:38:06.779Z,45.58
2019-04-23T03:43:06.391Z,45.50
2019-04-23T03:48:16.813Z,45.36
2019-04-23T03:53:14.070Z,45.42
2019-04-23T03:58:33.494Z,45.43
2019-04-23T04:08:25.976Z,45.33
2019-04-23T04:18:54.255Z,45.34
2019-04-23T04:28:51.425Z,45.43
2019-04-23T04:34:11.225Z,45.22
2019-04-23T04:44:23.672Z,45.67
2019-04-23T04:54:14.067Z,45.32
2019-04-23T04:59:17.690Z,45.25
2019-04-23T05:04:33.137Z,45.73
2019-04-23T05:24:39.935Z,45.52
2019-04-23T05:29:54.305Z,45.70
2019-04-23T05:34:55.784Z,45.71
2019-04-23T05:40:08.685Z,46.29
2019-04-23T05:45:08.304Z,46.63
2019-04-23T05:55:15.331Z,46.56
2019-04-23T06:00:26.229Z,46.58
2019-04-23T06:05:25.031Z,46.75
2019-04-23T06:10:34.039Z,46.57
2019-04-23T06:15:32.151Z,46.59
2019-04-23T06:20:45.066Z,46.73
2019-04-23T06:25:57.723Z,47.01
2019-04-23T06:30:54.413Z,46.97
2019-04-23T06:36:03.437Z,46.86
2019-04-23T06:41:00.815Z,46.11
2019-04-23T06:46:05.426Z,46.54
2019-04-23T06:51:12.807Z,46.47
2019-04-23T06:56:19.166Z,46.35
2019-04-23T07:01:17.705Z,47.03
2019-04-23T07:16:32.915Z,47.15
2019-04-23T07:21:33.553Z,47.15
2019-04-23T07:26:42.053Z,47.10
2019-04-23T07:31:53.914Z,47.51
2019-04-23T07:36:55.090Z,47.20
2019-04-23T07:42:09.346Z,47.24
2019-04-23T07:47:27.595Z,46.46
2019-04-23T07:52:23.946Z,45.63
2019-04-23T08:02:30.176Z,44.92
2019-04-23T08:07:37.226Z,45.74
2019-04-23T08:12:40.553Z,46.14
2019-04-23T08:17:43.450Z,46.94
2019-04-23T08:22:56.857Z,45.53
2019-04-23T08:27:57.489Z,44.09
2019-04-23T08:33:04.269Z,44.01
2019-04-23T08:38:24.617Z,44.42
2019-04-23T08:43:29.594Z,44.09
2019-04-23T08:48:41.662Z,42.48
2019-04-23T08:53:37.750Z,43.02
2019-04-23T09:08:45.817Z,41.90
2019-04-23T09:18:53.063Z,42.07
2019-04-23T09:23:56.840Z,42.79
2019-04-23T09:29:10.079Z,42.77
2019-04-23T09:34:11.287Z,43.72
2019-04-23T09:39:20.541Z,43.52
2019-04-23T09:44:55.933Z,43.92
2019-04-23T09:49:47.320Z,43.57
2019-04-23T09:54:58.633Z,43.37
2019-04-23T09:59:58.131Z,43.64
2019-04-23T10:04:51.879Z,43.66
2019-04-23T10:09:42.390Z,44.02
2019-04-23T10:14:56.464Z,44.42
2019-04-23T10:19:50.959Z,45.16
2019-04-23T10:24:55.306Z,45.01
2019-04-23T10:29:59.612Z,45.21
2019-04-23T10:35:14.678Z,45.59
2019-04-23T10:40:15.416Z,45.61
2019-04-23T10:45:35.176Z,45.47
2019-04-23T10:56:02.802Z,45.00
2019-04-23T11:01:19.367Z,45.71
2019-04-23T11:06:17.649Z,45.57
2019-04-23T11:11:25.041Z,45.27
2019-04-23T11:16:44.831Z,45.45
2019-04-23T11:21:33.925Z,45.14
2019-04-23T11:26:37.035Z,45.25
2019-04-23T11:31:42.966Z,45.30
2019-04-23T11:41:51.722Z,45.78
2019-04-23T11:47:09.530Z,45.62
2019-04-23T11:52:08.313Z,45.55
2019-04-23T11:57:21.569Z,45.44
2019-04-23T12:02:40.090Z,45.13
2019-04-23T12:07:50.909Z,45.40
2019-04-23T12:12:53.426Z,45.21
2019-04-23T12:18:05.349Z,45.58
2019-04-23T12:28:13.601Z,45.81
2019-04-23T12:33:30.138Z,46.01
2019-04-23T12:38:23.925Z,46.19
2019-04-23T12:53:37.749Z,45.89
2019-04-23T12:58:33.922Z,45.65
2019-04-23T13:03:49.187Z,45.47
2019-04-23T13:08:54.312Z,45.60
2019-04-23T13:14:00.838Z,45.99
2019-04-23T13:19:15.070Z,45.90
2019-04-23T13:24:11.384Z,45.92
2019-04-23T13:29:19.521Z,46.85
2019-04-23T13:34:25.348Z,47.36
2019-04-23T13:39:24.443Z,47.36
2019-04-23T13:44:33.120Z,46.91
2019-04-23T13:49:37.423Z,46.66
2019-04-23T14:10:24.520Z,46.97
2019-04-23T14:15:36.943Z,46.80
2019-04-23T14:20:27.976Z,46.88
2019-04-23T14:25:52.086Z,46.99
2019-04-23T14:30:46.572Z,47.58
2019-04-23T14:35:45.448Z,48.28
2019-04-23T14:46:27.098Z,47.68
2019-04-23T14:51:18.290Z,47.54
2019-04-23T14:56:17.316Z,48.19
2019-04-23T15:11:44.145Z,49.87
2019-04-23T15:16:44.608Z,50.21
2019-04-23T15:31:59.294Z,50.49
2019-04-23T15:37:00.853Z,51.40
2019-04-23T15:47:04.562Z,52.12
2019-04-23T15:52:10.754Z,52.11
2019-04-23T15:57:07.153Z,51.35
2019-04-23T16:01:48.314Z,50.93
2019-04-23T16:06:51.950Z,51.20
2019-04-23T16:12:17.332Z,50.71
2019-04-23T16:17:32.678Z,51.20
2019-04-23T16:22:32.114Z,51.36
2019-04-23T16:27:36.628Z,51.68
2019-04-23T16:38:01.705Z,51.28
2019-04-23T16:43:07.423Z,51.46
2019-04-23T16:48:06.578Z,51.91
2019-04-23T16:53:22.320Z,51.84
2019-04-23T16:58:23.239Z,52.33
2019-04-23T17:08:45.351Z,52.58
2019-04-23T17:13:34.444Z,52.81
2019-04-23T17:18:31.427Z,52.78
2019-04-23T17:28:59.749Z,52.79
2019-04-23T17:33:54.547Z,53.09
2019-04-23T17:39:05.407Z,53.03
2019-04-23T17:44:18.082Z,52.72
2019-04-23T17:49:15.275Z,53.46
2019-04-23T17:59:27.870Z,53.43
2019-04-23T18:04:34.791Z,53.63
2019-04-23T18:09:37.865Z,53.38
2019-04-23T18:14:42.204Z,54.18
2019-04-23T18:19:56.524Z,53.55
2019-04-23T18:30:20.723Z,53.89
2019-04-23T18:35:28.003Z,54.05
2019-04-23T18:40:40.360Z,53.64
2019-04-23T18:45:45.336Z,52.75
2019-04-23T18:56:00.336Z,52.32
2019-04-23T19:01:14.065Z,52.42
2019-04-23T19:06:21.878Z,52.82
2019-04-23T19:11:46.119Z,52.55
2019-04-23T19:16:53.181Z,52.39
2019-04-23T19:42:09.929Z,52.56
2019-04-23T19:47:33.162Z,52.58
2019-04-23T19:52:46.803Z,52.17
2019-04-23T19:57:34.000Z,53.11
2019-04-23T20:02:48.133Z,53.18
2019-04-23T20:07:50.880Z,52.90
2019-04-23T20:12:59.023Z,52.83
2019-04-23T20:17:48.811Z,52.78
2019-04-23T20:22:58.270Z,52.65
2019-04-23T20:28:17.279Z,52.59
2019-04-23T20:38:40.285Z,52.35
2019-04-23T20:43:32.447Z,52.53
2019-04-23T20:48:46.948Z,52.49
2019-04-23T20:53:43.317Z,52.52
2019-04-23T20:58:48.193Z,52.76
2019-04-23T21:03:56.851Z,52.39
2019-04-23T21:09:22.718Z,52.41
2019-04-23T21:14:22.665Z,52.44
2019-04-23T21:19:02.516Z,52.23
2019-04-23T21:24:11.253Z,52.34
2019-04-23T21:29:17.619Z,52.51
2019-04-23T21:34:44.899Z,52.46
2019-04-23T21:39:53.551Z,52.39
2019-04-23T21:44:38.562Z,52.39
2019-04-23T21:50:04.642Z,52.33
2019-04-23T21:59:55.576Z,52.15
2019-04-23T22:15:12.631Z,52.01
2019-04-23T22:25:23.712Z,51.82
2019-04-23T22:30:31.436Z,51.77
2019-04-23T22:35:42.293Z,51.78
2019-04-23T22:40:41.533Z,51.72
2019-04-23T22:45:52.679Z,51.66
2019-04-23T22:50:57.475Z,51.66
2019-04-23T22:56:01.711Z,51.58
2019-04-23T23:01:19.976Z,51.51
2019-04-23T23:11:22.798Z,51.49
2019-04-23T23:16:30.330Z,51.53
2019-04-23T23:21:43.116Z,51.38
2019-04-23T23:26:50.001Z,51.45
2019-04-23T23:37:10.562Z,51.81
2019-04-23T23:47:12.687Z,51.62
2019-04-23T23:52:09.553Z,51.57
2019-04-23T23:57:16.494Z,51.57
